Cala Paguro — D5KY9 — position and weather

sailwx.info

Track history (hours):
 
Tides and Currents Weather Stations Pressure Air Temp Water Temp Dewpoint Dewpoint Depression Visibility Wind Speed Wind Dir Waves Ship Positions

Cala Paguro

Last reported at 2017-Dec-09 21:13 UTC. Time now 2017-Dec-11 11:37 UTC.
Position N 10°33' W 016°43'.

Length 172 m; draft 5.7 m.

Type: Cargo ship. MMSI: 636017440.

Date/timePositionNaut miles runAvg speedWind from/ knotsBaromVisibWave heightAir tempDewpointWater temp
2017-Dec-09 21:13N 10°33' W 016°43'314.2
2017-Dec-09 21:00N 10°31' W 016°41'816.0
2017-Dec-09 20:30N 10°24' W 016°36'916.2
2017-Dec-09 19:57N 10°17' W 016°31'1617.2
2017-Dec-09 19:01N 10°04' W 016°21'0 2.7
2017-Dec-09 18:56N 10°04' W 016°21'816.0
2017-Dec-09 18:26N 09°58' W 016°16'715.8
2017-Dec-09 18:00N 09°52' W 016°12'815.9
2017-Dec-09 17:30N 09°46' W 016°07'815.9
2017-Dec-09 17:00N 09°40' W 016°01'815.8
2017-Dec-09 16:30N 09°34' W 015°56'1615.9
2017-Dec-09 15:31N 09°22' W 015°46'616.1
2017-Dec-09 15:10N 09°17' W 015°43'316.2
2017-Dec-09 15:00N 09°15' W 015°41'816.3
2017-Dec-09 14:30N 09°09' W 015°36'816.4
2017-Dec-09 14:00N 09°04' W 015°29'816.3
2017-Dec-09 13:30N 08°58' W 015°23'816.2
2017-Dec-09 13:00N 08°53' W 015°17'916.5
2017-Dec-09 12:26N 08°47' W 015°10'816.3
2017-Dec-09 11:57N 08°42' W 015°04'816.4
2017-Dec-09 11:28N 08°37' W 014°58'1416.4
2017-Dec-09 10:36N 08°27' W 014°47'216.6
2017-Dec-09 10:30N 08°26' W 014°45'1116.4
2017-Dec-09 09:48N 08°19' W 014°37'516.0
2017-Dec-09 09:30N 08°16' W 014°33'916.1
2017-Dec-09 08:58N 08°10' W 014°26'  
2017-Dec-04 00:54N 05°34' E 000°33'616.1
2017-Dec-04 00:31N 05°34' E 000°26'815.9
2017-Dec-04 00:00N 05°34' E 000°18'815.8
2017-Dec-03 23:30N 05°33' E 000°10'714.2
2017-Dec-03 23:00N 05°34' E 000°03'4 8.5
2017-Dec-03 22:30N 05°38' E 000°01'0 0.9
2017-Dec-03 21:59N 05°37' E 000°00'0 0.0
2017-Dec-03 21:29N 05°37' E 000°00'0 0.0
2017-Dec-03 20:59N 05°37' E 000°00'0 0.0
2017-Dec-03 20:29N 05°37' E 000°00'0 0.0
2017-Dec-03 19:59N 05°37' E 000°00'0 0.0
2017-Dec-03 19:29N 05°37' E 000°00'0 0.0
2017-Dec-03 18:59N 05°37' E 000°00'0 0.0
2017-Dec-03 18:29N 05°37' E 000°00'0 0.0
2017-Dec-03 17:59N 05°37' E 000°00'0 0.0
2017-Dec-03 17:29N 05°37' E 000°00'0 0.0
2017-Dec-03 16:59N 05°37' E 000°00'0 0.0
2017-Dec-03 16:29N 05°37' E 000°00'0 0.0
2017-Dec-03 15:59N 05°37' E 000°00'0 0.0
2017-Dec-03 15:29N 05°37' E 000°00'0 0.0
2017-Dec-03 14:59N 05°37' E 000°00'0 0.0
2017-Dec-03 14:29N 05°37' E 000°00'0 0.0
2017-Dec-03 13:59N 05°37' E 000°00'0 0.0
2017-Dec-03 13:29N 05°37' E 000°00'0 0.0
2017-Dec-03 12:59N 05°37' E 000°00'0 0.0
2017-Dec-03 12:29N 05°37' E 000°00'0 0.0
2017-Dec-03 11:59N 05°37' E 000°00'0 0.0
2017-Dec-03 11:29N 05°37' E 000°00'0 0.0
2017-Dec-03 10:59N 05°37' E 000°00'0 0.0
2017-Dec-03 10:29N 05°37' E 000°00'0 0.3
2017-Dec-03 10:00N 05°37' E 000°01'2 3.9
2017-Dec-03 09:30N 05°37' E 000°03'2 3.6
2017-Dec-03 09:00N 05°36' E 000°04'0 0.6
2017-Dec-03 08:31N 05°36' E 000°04'2 4.5
2017-Dec-03 08:00N 05°33' E 000°03'510.1
2017-Dec-03 07:30N 05°29' E 000°02'815.2
2017-Dec-03 07:01N 05°21' W 000°01'815.4
2017-Dec-03 06:30N 05°14' W 000°02'  
Track history (hours):
 
Tides and Currents Weather Stations Pressure Air Temp Water Temp Dewpoint Dewpoint Depression Visibility Wind Speed Wind Dir Waves Ship Positions

Cala Paguro

Last reported at 2017-Dec-09 21:13 UTC. Time now 2017-Dec-11 11:37 UTC.
Position N 10°33' W 016°43'.

Length 172 m; draft 5.7 m.

Type: Cargo ship. MMSI: 636017440.

Date/timePositionNaut miles runAvg speedWind from/ knotsBaromVisibWave heightAir tempDewpointWater temp
2017-Dec-09 21:13N 10°33' W 016°43'314.2
2017-Dec-09 21:00N 10°31' W 016°41'816.0
2017-Dec-09 20:30N 10°24' W 016°36'916.2
2017-Dec-09 19:57N 10°17' W 016°31'1617.2
2017-Dec-09 19:01N 10°04' W 016°21'0 2.7
2017-Dec-09 18:56N 10°04' W 016°21'816.0
2017-Dec-09 18:26N 09°58' W 016°16'715.8
2017-Dec-09 18:00N 09°52' W 016°12'815.9
2017-Dec-09 17:30N 09°46' W 016°07'815.9
2017-Dec-09 17:00N 09°40' W 016°01'815.8
2017-Dec-09 16:30N 09°34' W 015°56'1615.9
2017-Dec-09 15:31N 09°22' W 015°46'616.1
2017-Dec-09 15:10N 09°17' W 015°43'316.2
2017-Dec-09 15:00N 09°15' W 015°41'816.3
2017-Dec-09 14:30N 09°09' W 015°36'816.4
2017-Dec-09 14:00N 09°04' W 015°29'816.3
2017-Dec-09 13:30N 08°58' W 015°23'816.2
2017-Dec-09 13:00N 08°53' W 015°17'916.5
2017-Dec-09 12:26N 08°47' W 015°10'816.3
2017-Dec-09 11:57N 08°42' W 015°04'816.4
2017-Dec-09 11:28N 08°37' W 014°58'1416.4
2017-Dec-09 10:36N 08°27' W 014°47'216.6
2017-Dec-09 10:30N 08°26' W 014°45'1116.4
2017-Dec-09 09:48N 08°19' W 014°37'516.0
2017-Dec-09 09:30N 08°16' W 014°33'916.1
2017-Dec-09 08:58N 08°10' W 014°26'  
2017-Dec-04 00:54N 05°34' E 000°33'616.1
2017-Dec-04 00:31N 05°34' E 000°26'815.9
2017-Dec-04 00:00N 05°34' E 000°18'815.8
2017-Dec-03 23:30N 05°33' E 000°10'714.2
2017-Dec-03 23:00N 05°34' E 000°03'4 8.5
2017-Dec-03 22:30N 05°38' E 000°01'0 0.9
2017-Dec-03 21:59N 05°37' E 000°00'0 0.0
2017-Dec-03 21:29N 05°37' E 000°00'0 0.0
2017-Dec-03 20:59N 05°37' E 000°00'0 0.0
2017-Dec-03 20:29N 05°37' E 000°00'0 0.0
2017-Dec-03 19:59N 05°37' E 000°00'0 0.0
2017-Dec-03 19:29N 05°37' E 000°00'0 0.0
2017-Dec-03 18:59N 05°37' E 000°00'0 0.0
2017-Dec-03 18:29N 05°37' E 000°00'0 0.0
2017-Dec-03 17:59N 05°37' E 000°00'0 0.0
2017-Dec-03 17:29N 05°37' E 000°00'0 0.0
2017-Dec-03 16:59N 05°37' E 000°00'0 0.0
2017-Dec-03 16:29N 05°37' E 000°00'0 0.0
2017-Dec-03 15:59N 05°37' E 000°00'0 0.0
2017-Dec-03 15:29N 05°37' E 000°00'0 0.0
2017-Dec-03 14:59N 05°37' E 000°00'0 0.0
2017-Dec-03 14:29N 05°37' E 000°00'0 0.0
2017-Dec-03 13:59N 05°37' E 000°00'0 0.0
2017-Dec-03 13:29N 05°37' E 000°00'0 0.0
2017-Dec-03 12:59N 05°37' E 000°00'0 0.0
2017-Dec-03 12:29N 05°37' E 000°00'0 0.0
2017-Dec-03 11:59N 05°37' E 000°00'0 0.0
2017-Dec-03 11:29N 05°37' E 000°00'0 0.0
2017-Dec-03 10:59N 05°37' E 000°00'0 0.0
2017-Dec-03 10:29N 05°37' E 000°00'0 0.3
2017-Dec-03 10:00N 05°37' E 000°01'2 3.9
2017-Dec-03 09:30N 05°37' E 000°03'2 3.6
2017-Dec-03 09:00N 05°36' E 000°04'0 0.6
2017-Dec-03 08:31N 05°36' E 000°04'2 4.5
2017-Dec-03 08:00N 05°33' E 000°03'510.1
2017-Dec-03 07:30N 05°29' E 000°02'815.2
2017-Dec-03 07:01N 05°21' W 000°01'815.4
2017-Dec-03 06:30N 05°14' W 000°02'  

Dump ship's entire track history